Time;durP1;ratioP1;P1;durP2;ratioP2;P2;SDS_P1;SDS_P2;PMS_P1;PMS_P2;Temp;Humidity;BMP_temperature;BMP_pressure;BME280_temperature;BME280_humidity;BME280_pressure;Samples;Min_cycle;Max_cycle;Signal;HPM_P1;HPM_P2
2022/05/28 00:01:13;;;;;;;15.23;4.22;;;26.30;49.20;;;;;;4918990;29;20103;-67
2022/05/28 00:03:40;;;;;;;17.92;4.30;;;26.20;49.40;;;;;;4902214;29;20024;-67
2022/05/28 00:06:14;;;;;;;15.15;3.50;;;26.20;49.20;;;;;;4918849;29;20107;-68
2022/05/28 00:08:40;;;;;;;12.80;3.72;;;26.30;49.60;;;;;;4918706;29;20024;-67
2022/05/28 00:11:18;;;;;;;16.00;4.75;;;26.30;49.50;;;;;;4901742;29;20035;-67
2022/05/28 00:13:45;;;;;;;18.88;4.45;;;26.30;49.70;;;;;;4919037;29;20039;-67
2022/05/28 00:16:11;;;;;;;17.15;4.13;;;26.30;49.40;;;;;;4918753;29;20040;-67
2022/05/28 00:18:39;;;;;;;15.55;4.15;;;26.30;49.50;;;;;;4917669;29;20087;-67
2022/05/28 00:21:09;;;;;;;18.25;4.40;;;26.30;49.30;;;;;;4917425;29;20047;-68
2022/05/28 00:23:37;;;;;;;13.93;4.55;;;26.30;47.90;;;;;;4918837;29;20095;-68
2022/05/28 00:26:03;;;;;;;14.10;3.88;;;26.30;49.30;;;;;;4918715;29;20112;-67
2022/05/28 00:28:30;;;;;;;18.63;4.93;;;26.30;49.30;;;;;;4918543;29;20028;-67
2022/05/28 00:30:56;;;;;;;15.68;3.83;;;26.30;49.30;;;;;;4918659;29;20032;-68
2022/05/28 00:33:22;;;;;;;15.88;3.75;;;26.30;49.10;;;;;;4918689;29;20025;-67
2022/05/28 00:35:49;;;;;;;16.00;3.72;;;26.30;49.10;;;;;;4917187;29;20446;-67
2022/05/28 00:38:15;;;;;;;15.70;4.40;;;26.30;49.40;;;;;;4918481;29;20074;-68
2022/05/28 00:40:48;;;;;;;15.05;3.88;;;26.30;49.20;;;;;;4917844;29;20431;-68
2022/05/28 00:43:15;;;;;;;14.77;4.38;;;26.20;49.20;;;;;;4918344;29;20075;-67
2022/05/28 00:45:41;;;;;;;11.57;3.47;;;26.20;49.20;;;;;;4918611;29;20486;-67
2022/05/28 00:48:09;;;;;;;16.50;4.47;;;26.20;49.50;;;;;;4918193;29;20028;-69
2022/05/28 00:50:37;;;;;;;13.95;4.05;;;26.20;49.60;;;;;;4918535;29;20043;-67
2022/05/28 00:53:04;;;;;;;14.55;4.10;;;26.10;49.50;;;;;;4918233;29;20059;-70
2022/05/28 00:55:35;;;;;;;16.48;3.92;;;26.10;49.70;;;;;;4917756;29;20028;-68
2022/05/28 00:58:06;;;;;;;15.35;4.25;;;26.10;50.40;;;;;;4901391;29;20036;-69
2022/05/28 01:00:33;;;;;;;15.10;4.45;;;26.10;50.70;;;;;;4918575;29;20028;-69
2022/05/28 01:03:32;;;;;;;13.77;4.82;;;26.00;50.70;;;;;;4918743;29;20020;-69
2022/05/28 01:06:18;;;;;;;16.00;4.03;;;25.90;51.00;;;;;;4916607;29;20036;-69
2022/05/28 01:09:01;;;;;;;17.00;4.38;;;25.90;49.80;;;;;;4917869;29;20024;-68
2022/05/28 01:11:49;;;;;;;17.02;4.00;;;25.90;49.50;;;;;;4918306;29;20024;-69
2022/05/28 01:14:31;;;;;;;14.02;4.47;;;25.80;51.20;;;;;;4917909;29;20059;-68
2022/05/28 01:17:28;;;;;;;16.92;4.43;;;25.70;51.80;;;;;;4918065;29;20067;-68
2022/05/28 01:20:03;;;;;;;19.52;4.10;;;25.60;52.30;;;;;;4905127;29;20036;-67
2022/05/28 01:22:54;;;;;;;15.60;4.60;;;25.60;51.30;;;;;;4917958;29;20056;-68
2022/05/28 01:25:57;;;;;;;15.65;3.97;;;25.50;51.00;;;;;;4917870;29;20028;-68
2022/05/28 01:28:29;;;;;;;14.73;3.53;;;25.50;51.10;;;;;;4917873;29;20486;-68
2022/05/28 01:30:57;;;;;;;23.90;4.00;;;25.40;51.40;;;;;;4917485;29;20039;-67
2022/05/28 01:33:23;;;;;;;15.13;4.07;;;25.50;51.30;;;;;;4900411;29;20098;-67
2022/05/28 01:35:50;;;;;;;13.13;4.25;;;25.50;51.30;;;;;;4917923;29;20035;-67
2022/05/28 01:38:18;;;;;;;12.75;3.67;;;25.50;51.50;;;;;;4918013;29;20031;-67
2022/05/28 01:40:45;;;;;;;14.05;3.55;;;25.70;51.30;;;;;;4917558;29;20031;-67
2022/05/28 01:43:13;;;;;;;14.85;3.88;;;25.80;51.10;;;;;;4917368;29;20074;-67
2022/05/28 01:45:42;;;;;;;16.70;4.18;;;25.80;51.00;;;;;;4918004;29;20154;-68
2022/05/28 01:48:08;;;;;;;15.77;4.32;;;25.80;50.70;;;;;;4917969;29;20028;-67
2022/05/28 01:50:43;;;;;;;15.25;4.15;;;25.70;50.80;;;;;;4916533;29;20059;-66
2022/05/28 01:54:06;;;;;;;14.18;4.28;;;25.60;50.20;;;;;;4916986;29;20067;-66
2022/05/28 01:56:00;;;;;;;18.48;4.13;;;25.50;51.50;;;;;;4917010;29;20580;-68
2022/05/28 01:58:26;;;;;;;13.98;4.47;;;25.40;51.70;;;;;;4919978;29;20107;-68
2022/05/28 02:00:51;;;;;;;16.13;4.25;;;25.30;51.90;;;;;;4919372;29;20082;-67
2022/05/28 02:03:18;;;;;;;14.07;4.43;;;25.30;51.90;;;;;;4918896;29;20103;-68
2022/05/28 02:05:44;;;;;;;16.30;3.90;;;25.30;52.20;;;;;;4917157;29;20103;-68
2022/05/28 02:08:09;;;;;;;13.98;4.15;;;25.30;51.80;;;;;;4900050;29;20482;-67
2022/05/28 02:10:41;;;;;;;17.95;4.43;;;25.20;51.90;;;;;;4916805;29;20072;-68
2022/05/28 02:13:17;;;;;;;19.83;5.10;;;25.10;52.20;;;;;;4916792;29;20032;-66
2022/05/28 02:15:52;;;;;;;17.13;4.80;;;25.10;52.20;;;;;;4916532;29;20032;-68
2022/05/28 02:18:39;;;;;;;13.13;4.00;;;25.10;52.00;;;;;;4916767;29;20170;-66
2022/05/28 02:21:31;;;;;;;24.45;4.00;;;25.10;52.30;;;;;;4916545;29;20028;-67
2022/05/28 02:24:26;;;;;;;16.65;4.38;;;25.10;51.40;;;;;;4916824;29;20095;-67
2022/05/28 02:26:57;;;;;;;16.73;4.03;;;25.10;52.10;;;;;;4899614;29;20438;-66
2022/05/28 02:29:23;;;;;;;17.65;4.60;;;25.10;52.10;;;;;;4916516;29;20036;-70
2022/05/28 02:31:50;;;;;;;18.42;4.90;;;25.10;51.80;;;;;;4916685;29;20036;-66
2022/05/28 02:34:18;;;;;;;19.83;4.70;;;25.10;52.10;;;;;;4916713;29;20064;-67
2022/05/28 02:36:44;;;;;;;20.85;5.05;;;25.10;52.00;;;;;;4916342;29;20040;-69
2022/05/28 02:39:10;;;;;;;16.25;4.40;;;25.20;51.80;;;;;;4916661;29;20134;-68
2022/05/28 02:41:37;;;;;;;20.13;4.68;;;25.10;51.70;;;;;;4916761;29;20032;-68
2022/05/28 02:44:03;;;;;;;22.20;4.65;;;25.10;51.80;;;;;;4916628;29;20482;-67
2022/05/28 02:46:29;;;;;;;10.68;3.83;;;25.00;51.60;;;;;;4916604;29;20028;-67
2022/05/28 02:48:55;;;;;;;16.63;4.13;;;25.00;51.60;;;;;;4916557;29;20056;-67
2022/05/28 02:51:22;;;;;;;16.48;4.38;;;25.00;51.90;;;;;;4916202;29;20083;-67
2022/05/28 02:53:51;;;;;;;14.38;3.67;;;25.00;52.30;;;;;;4916304;29;20024;-67
2022/05/28 02:56:17;;;;;;;16.17;4.32;;;25.00;52.20;;;;;;4916205;29;20044;-66
2022/05/28 02:58:43;;;;;;;16.42;4.10;;;25.00;52.20;;;;;;4916623;29;20066;-67
2022/05/28 03:01:22;;;;;;;19.77;4.25;;;25.00;52.20;;;;;;4917009;29;20048;-67
2022/05/28 03:03:48;;;;;;;17.50;3.90;;;24.90;51.70;;;;;;4916332;29;20395;-68
2022/05/28 03:06:14;;;;;;;16.80;4.40;;;24.90;52.40;;;;;;4919873;29;20478;-69
2022/05/28 03:08:40;;;;;;;16.02;4.22;;;24.80;52.30;;;;;;4920106;29;20021;-69
2022/05/28 03:11:06;;;;;;;13.98;4.55;;;24.90;52.50;;;;;;4920090;29;20028;-69
2022/05/28 03:13:32;;;;;;;17.08;5.30;;;24.80;52.30;;;;;;4920243;29;20103;-69
2022/05/28 03:15:57;;;;;;;16.65;4.60;;;24.80;52.30;;;;;;4919866;29;20533;-69
2022/05/28 03:18:23;;;;;;;15.45;4.22;;;24.90;52.30;;;;;;4919810;29;20032;-69
2022/05/28 03:20:49;;;;;;;17.73;4.57;;;24.90;52.40;;;;;;4919737;29;20474;-67
2022/05/28 03:23:15;;;;;;;18.08;5.18;;;24.90;52.20;;;;;;4920372;29;20028;-67
2022/05/28 03:25:40;;;;;;;22.98;4.70;;;24.90;52.20;;;;;;4921947;29;20028;-67
2022/05/28 03:28:06;;;;;;;18.23;5.20;;;24.90;52.20;;;;;;4921095;29;20055;-67
2022/05/28 03:30:32;;;;;;;18.98;4.70;;;24.80;52.10;;;;;;4918145;29;20032;-68
2022/05/28 03:32:58;;;;;;;19.23;4.88;;;24.90;52.30;;;;;;4919638;29;20063;-68
2022/05/28 03:35:24;;;;;;;12.27;4.13;;;24.90;52.30;;;;;;4919647;29;20063;-68
2022/05/28 03:37:49;;;;;;;18.00;4.28;;;24.80;52.40;;;;;;4903001;29;20056;-67
2022/05/28 03:40:15;;;;;;;21.08;4.60;;;24.80;52.30;;;;;;4919732;29;20107;-67
2022/05/28 03:42:41;;;;;;;16.02;4.85;;;24.80;52.40;;;;;;4919578;29;20056;-68
2022/05/28 03:45:07;;;;;;;14.60;4.45;;;24.70;52.60;;;;;;4919444;29;20024;-69
2022/05/28 03:47:32;;;;;;;23.80;4.80;;;24.70;52.90;;;;;;4919368;29;20031;-69
2022/05/28 03:49:58;;;;;;;15.07;4.00;;;24.70;52.80;;;;;;4919466;29;20047;-66
2022/05/28 03:52:24;;;;;;;22.45;4.50;;;24.60;53.10;;;;;;4919327;29;20400;-67
2022/05/28 03:54:50;;;;;;;18.63;4.78;;;24.60;53.20;;;;;;4919494;29;20465;-69
2022/05/28 03:57:30;;;;;;;20.05;4.57;;;24.70;53.20;;;;;;4919387;29;20040;-69
2022/05/28 03:59:57;;;;;;;17.92;4.97;;;24.70;53.50;;;;;;4919352;29;20032;-69
2022/05/28 04:02:24;;;;;;;13.00;4.20;;;24.70;53.40;;;;;;4918001;29;20460;-68
2022/05/28 04:04:50;;;;;;;20.13;5.70;;;24.70;53.30;;;;;;4918235;29;20399;-68
2022/05/28 04:07:16;;;;;;;25.60;5.40;;;24.70;53.20;;;;;;4919352;29;20088;-67
2022/05/28 04:09:42;;;;;;;23.67;8.77;;;24.80;53.30;;;;;;4919294;29;20032;-70
2022/05/28 04:12:08;;;;;;;23.38;4.38;;;24.80;54.10;;;;;;4919556;29;20072;-69
2022/05/28 04:14:34;;;;;;;18.45;4.78;;;24.80;53.40;;;;;;4919241;29;20028;-67
2022/05/28 04:17:00;;;;;;;15.40;6.00;;;24.80;53.40;;;;;;4919190;29;20042;-68
2022/05/28 04:19:25;;;;;;;17.27;5.00;;;24.80;54.00;;;;;;4919082;29;20039;-67
2022/05/28 04:21:51;;;;;;;21.48;4.97;;;24.90;53.50;;;;;;4919063;29;20497;-68
2022/05/28 04:24:17;;;;;;;19.00;5.68;;;24.80;53.30;;;;;;4902135;29;20021;-67
2022/05/28 04:26:43;;;;;;;14.80;3.95;;;24.90;53.30;;;;;;4918895;29;20053;-68
2022/05/28 04:29:09;;;;;;;17.95;4.00;;;24.90;53.20;;;;;;4918487;29;20364;-68
2022/05/28 04:31:35;;;;;;;18.83;4.65;;;24.90;53.50;;;;;;4917233;29;20032;-69
2022/05/28 04:34:01;;;;;;;20.42;4.70;;;24.90;53.30;;;;;;4918495;29;20051;-67
2022/05/28 04:36:27;;;;;;;17.20;4.78;;;25.00;53.40;;;;;;4918309;29;20457;-68
2022/05/28 04:38:52;;;;;;;23.08;4.95;;;25.00;53.30;;;;;;4918506;29;20036;-67
2022/05/28 04:41:18;;;;;;;17.50;4.53;;;25.00;53.20;;;;;;4918154;29;20047;-67
2022/05/28 04:43:44;;;;;;;21.67;4.95;;;25.00;53.30;;;;;;4918519;29;20106;-67
2022/05/28 04:46:10;;;;;;;16.42;4.60;;;25.10;53.30;;;;;;4918261;29;20025;-68
2022/05/28 04:48:36;;;;;;;17.38;4.25;;;25.00;53.20;;;;;;4918228;29;20351;-68
2022/05/28 04:51:02;;;;;;;21.75;4.55;;;25.00;53.30;;;;;;4917715;29;20055;-67
2022/05/28 04:53:27;;;;;;;15.05;4.40;;;25.00;53.50;;;;;;4918134;29;20032;-66
2022/05/28 04:55:53;;;;;;;20.20;4.85;;;25.00;53.70;;;;;;4918320;29;20051;-67
2022/05/28 04:58:19;;;;;;;18.27;4.40;;;25.00;53.40;;;;;;4918112;29;20482;-67
2022/05/28 05:00:46;;;;;;;22.33;5.38;;;25.00;53.40;;;;;;4918021;29;20024;-67
2022/05/28 05:03:13;;;;;;;21.10;4.35;;;25.10;54.10;;;;;;4918320;29;20035;-67
2022/05/28 05:05:39;;;;;;;23.02;4.93;;;25.20;53.40;;;;;;4918244;29;20042;-67
2022/05/28 05:08:05;;;;;;;21.60;4.70;;;25.20;52.90;;;;;;4916627;29;20486;-67
2022/05/28 05:10:31;;;;;;;18.30;4.70;;;25.30;53.00;;;;;;4917709;29;20545;-66
2022/05/28 05:12:59;;;;;;;15.95;5.18;;;25.30;52.80;;;;;;4917652;29;20032;-67
2022/05/28 05:15:24;;;;;;;18.90;5.32;;;25.40;52.70;;;;;;4917684;29;20030;-67
2022/05/28 05:17:50;;;;;;;19.05;4.78;;;25.60;52.50;;;;;;4917761;29;20107;-66
2022/05/28 05:20:16;;;;;;;17.92;5.30;;;25.70;52.10;;;;;;4917505;29;20474;-68
2022/05/28 05:22:42;;;;;;;14.15;4.53;;;25.80;51.80;;;;;;4917653;29;20028;-66
2022/05/28 05:25:09;;;;;;;18.35;4.20;;;26.00;51.60;;;;;;4917509;29;20478;-67
2022/05/28 05:27:35;;;;;;;20.88;4.15;;;26.20;50.80;;;;;;4916990;29;20028;-66
2022/05/28 05:30:02;;;;;;;19.15;4.32;;;26.50;50.60;;;;;;4917479;29;20051;-68
2022/05/28 05:32:28;;;;;;;18.15;4.68;;;26.60;50.40;;;;;;4916066;29;20032;-67
2022/05/28 05:34:53;;;;;;;15.32;4.72;;;26.80;50.00;;;;;;4917554;29;20024;-67
2022/05/28 05:37:20;;;;;;;23.08;4.85;;;27.00;49.90;;;;;;4915965;29;20040;-68
2022/05/28 05:39:46;;;;;;;19.30;5.43;;;27.20;49.40;;;;;;4916988;29;20031;-66
2022/05/28 05:42:11;;;;;;;20.55;4.60;;;27.40;49.10;;;;;;4917242;29;20028;-68
2022/05/28 05:44:38;;;;;;;19.67;4.93;;;27.40;48.80;;;;;;4917204;29;20051;-69
2022/05/28 05:47:05;;;;;;;19.63;5.68;;;27.70;48.60;;;;;;4917503;29;20036;-67
2022/05/28 05:49:31;;;;;;;21.70;4.85;;;28.00;48.80;;;;;;4917114;29;20025;-68
2022/05/28 05:51:57;;;;;;;20.50;4.93;;;28.20;47.90;;;;;;4917400;29;20083;-68
2022/05/28 05:54:24;;;;;;;22.13;4.68;;;28.40;48.20;;;;;;4899762;29;20055;-68
2022/05/28 05:56:50;;;;;;;19.17;4.53;;;28.50;46.70;;;;;;4917226;29;20051;-67
2022/05/28 05:59:16;;;;;;;20.50;4.47;;;28.60;46.90;;;;;;4899755;29;20032;-67
2022/05/28 06:01:42;;;;;;;17.35;5.05;;;28.70;46.40;;;;;;4917019;29;20087;-68
2022/05/28 06:04:08;;;;;;;15.82;4.95;;;28.90;46.50;;;;;;4915558;29;20468;-67
2022/05/28 06:06:34;;;;;;;22.55;5.60;;;29.10;46.10;;;;;;4916725;29;20039;-68
2022/05/28 06:09:00;;;;;;;19.05;5.55;;;29.10;45.90;;;;;;4917116;29;20099;-68
2022/05/28 06:11:26;;;;;;;23.83;4.80;;;29.20;45.90;;;;;;4917089;29;20385;-67
2022/05/28 06:13:52;;;;;;;21.15;5.28;;;29.20;45.90;;;;;;4916520;29;20370;-68
2022/05/28 06:16:18;;;;;;;18.33;4.82;;;29.20;45.70;;;;;;4916711;29;20050;-68
2022/05/28 06:18:44;;;;;;;19.20;4.78;;;29.20;45.60;;;;;;4916723;29;20418;-67
2022/05/28 06:21:10;;;;;;;21.67;5.20;;;29.20;45.50;;;;;;4916525;29;20036;-68
2022/05/28 06:23:36;;;;;;;21.52;4.35;;;29.30;45.30;;;;;;4915426;29;20075;-68
2022/05/28 06:26:05;;;;;;;18.80;4.57;;;29.30;45.00;;;;;;4915218;29;20036;-67
2022/05/28 06:28:32;;;;;;;21.50;5.03;;;29.40;45.00;;;;;;4916659;29;20028;-68
2022/05/28 06:31:02;;;;;;;22.95;5.32;;;29.40;45.20;;;;;;4916568;29;20025;-69
2022/05/28 06:33:28;;;;;;;22.17;5.25;;;29.30;45.10;;;;;;4916831;29;20055;-69
2022/05/28 06:36:02;;;;;;;23.38;4.75;;;29.40;45.70;;;;;;4916595;29;20059;-68
2022/05/28 06:38:28;;;;;;;16.15;4.85;;;29.50;44.80;;;;;;4915133;29;20090;-68
2022/05/28 06:40:54;;;;;;;17.35;4.63;;;29.60;45.30;;;;;;4919456;29;20498;-69
2022/05/28 06:43:20;;;;;;;21.48;5.07;;;29.70;45.10;;;;;;4920353;29;20072;-69
2022/05/28 06:45:47;;;;;;;24.70;4.70;;;29.80;44.80;;;;;;4920244;29;20032;-69
2022/05/28 06:48:13;;;;;;;13.32;4.28;;;30.00;45.00;;;;;;4920243;29;20526;-70
2022/05/28 06:53:24;;;;;;;17.73;5.03;;;30.50;44.70;;;;;;4920074;29;20051;-69
2022/05/28 06:55:49;;;;;;;23.67;4.82;;;30.60;43.80;;;;;;4920075;29;20028;-69
2022/05/28 06:58:15;;;;;;;19.05;4.72;;;30.70;43.40;;;;;;4919992;29;20457;-70
2022/05/28 07:00:41;;;;;;;19.52;5.13;;;30.60;43.10;;;;;;4924010;29;20422;-69
2022/05/28 07:03:13;;;;;;;25.42;5.57;;;30.70;43.50;;;;;;4939140;29;20098;-70
2022/05/28 07:05:39;;;;;;;21.98;5.18;;;30.60;43.30;;;;;;4921818;29;20453;-70
2022/05/28 07:08:05;;;;;;;19.38;5.00;;;30.80;43.50;;;;;;4938953;29;20059;-68
2022/05/28 07:10:31;;;;;;;18.73;5.00;;;30.90;42.80;;;;;;4937879;29;20393;-69
2022/05/28 07:12:56;;;;;;;17.42;5.57;;;31.00;42.90;;;;;;4936688;29;20532;-70
2022/05/28 07:15:23;;;;;;;25.00;5.47;;;31.00;42.60;;;;;;4939527;29;20046;-69
2022/05/28 07:17:49;;;;;;;31.35;6.38;;;30.90;42.40;;;;;;4938612;29;20042;-69
2022/05/28 07:20:15;;;;;;;21.67;5.28;;;31.00;42.60;;;;;;4938462;29;20024;-69
2022/05/28 07:22:41;;;;;;;19.75;5.40;;;30.90;42.40;;;;;;4938574;29;20039;-71
2022/05/28 07:25:08;;;;;;;24.17;5.70;;;30.90;43.30;;;;;;4938216;29;20107;-70
2022/05/28 07:27:36;;;;;;;25.30;5.45;;;30.80;42.20;;;;;;4937757;29;20036;-74
2022/05/28 07:30:02;;;;;;;25.85;5.43;;;30.80;42.60;;;;;;4921210;29;20039;-69
2022/05/28 07:32:30;;;;;;;18.63;5.07;;;30.70;43.20;;;;;;4937728;29;20477;-71
2022/05/28 07:34:59;;;;;;;23.52;5.10;;;30.70;42.90;;;;;;4920869;29;20099;-71
2022/05/28 07:37:27;;;;;;;20.35;4.90;;;30.70;42.40;;;;;;4938345;29;20146;-74
2022/05/28 07:39:53;;;;;;;22.45;5.57;;;30.60;42.30;;;;;;4938393;29;20055;-74
2022/05/28 07:42:19;;;;;;;22.42;5.65;;;30.60;42.50;;;;;;4938132;29;20063;-72
2022/05/28 07:44:45;;;;;;;18.05;4.65;;;30.70;43.50;;;;;;4938093;29;20030;-74
2022/05/28 07:47:14;;;;;;;38.30;6.82;;;30.80;43.00;;;;;;4931416;29;20040;-73
2022/05/28 07:49:40;;;;;;;31.25;14.15;;;30.70;42.00;;;;;;4920178;29;20040;-75
2022/05/28 07:52:06;;;;;;;19.13;6.68;;;30.70;42.80;;;;;;4932220;29;20052;-73
2022/05/28 07:54:32;;;;;;;30.08;7.00;;;30.70;42.80;;;;;;4936627;29;20490;-73
2022/05/28 07:56:58;;;;;;;26.45;6.35;;;30.60;42.20;;;;;;4937583;29;20119;-74
2022/05/28 07:59:24;;;;;;;26.90;6.03;;;30.60;43.10;;;;;;4937492;29;20111;-75
2022/05/28 08:01:50;;;;;;;23.13;5.30;;;30.50;42.90;;;;;;4937611;29;20099;-74
2022/05/28 08:04:16;;;;;;;18.05;5.05;;;30.50;42.20;;;;;;4937777;29;20508;-75
2022/05/28 08:06:44;;;;;;;19.80;5.03;;;30.40;42.00;;;;;;4938534;29;20051;-74
2022/05/28 08:09:11;;;;;;;26.40;6.88;;;30.60;42.10;;;;;;4924329;29;20083;-74
2022/05/28 08:11:37;;;;;;;17.75;4.82;;;30.70;42.30;;;;;;4933217;29;20118;-77
2022/05/28 08:14:04;;;;;;;22.55;4.90;;;30.70;42.10;;;;;;4915012;29;20038;-78
2022/05/28 08:16:30;;;;;;;26.67;7.80;;;30.80;41.90;;;;;;4920825;29;20083;-78
2022/05/28 08:18:57;;;;;;;35.28;8.23;;;30.90;41.60;;;;;;4938314;29;20028;-80
2022/05/28 08:24:09;;;;;;;27.10;5.57;;;31.00;41.80;;;;;;4938271;29;20042;-79
2022/05/28 08:26:36;;;;;;;25.83;5.35;;;30.90;41.20;;;;;;4937936;29;20035;-80
2022/05/28 08:29:06;;;;;;;62.50;11.95;;;30.90;41.00;;;;;;4919916;29;20062;-71
2022/05/28 08:31:35;;;;;;;34.30;7.63;;;31.10;41.80;;;;;;4938185;29;20496;-73
2022/05/28 08:34:05;;;;;;;20.92;6.32;;;31.10;41.80;;;;;;4937986;29;20062;-72
2022/05/28 08:36:31;;;;;;;40.30;9.95;;;31.20;41.20;;;;;;4935144;29;20091;-72
2022/05/28 08:38:57;;;;;;;55.92;16.33;;;31.20;41.60;;;;;;4933718;29;20024;-74
2022/05/28 08:41:26;;;;;;;38.00;10.32;;;31.20;41.90;;;;;;4933078;29;20496;-74
2022/05/28 08:44:18;;;;;;;28.58;7.50;;;31.30;41.70;;;;;;4937092;29;20024;-73
2022/05/28 08:46:50;;;;;;;28.63;8.07;;;31.20;41.70;;;;;;4936631;29;20039;-74
2022/05/28 08:49:19;;;;;;;24.92;5.70;;;31.20;41.70;;;;;;4937233;29;20063;-76
2022/05/28 08:52:13;;;;;;;28.70;5.72;;;31.10;41.40;;;;;;4936781;29;20059;-73
2022/05/28 08:54:57;;;;;;;22.38;4.55;;;31.10;41.40;;;;;;4932717;29;20103;-71
2022/05/28 08:57:46;;;;;;;45.70;10.63;;;31.00;41.20;;;;;;4900406;29;20051;-70
2022/05/28 09:00:14;;;;;;;34.15;8.43;;;31.00;42.80;;;;;;4916156;29;20474;-70
2022/05/28 09:02:45;;;;;;;46.78;12.93;;;31.10;42.40;;;;;;4899913;29;20474;-72
2022/05/28 09:05:28;;;;;;;22.20;5.60;;;31.10;43.00;;;;;;4917875;29;20363;-71
2022/05/28 09:07:59;;;;;;;23.15;5.10;;;31.10;42.00;;;;;;4917600;29;20470;-71
2022/05/28 09:10:29;;;;;;;20.52;5.28;;;31.10;41.90;;;;;;4917543;29;20091;-71
2022/05/28 09:13:03;;;;;;;22.92;6.55;;;31.00;41.40;;;;;;4918237;29;20071;-71
2022/05/28 09:15:31;;;;;;;21.80;5.78;;;31.00;41.60;;;;;;4917682;29;20027;-71
2022/05/28 09:17:57;;;;;;;35.65;9.40;;;31.10;41.30;;;;;;4917393;29;20040;-72
2022/05/28 09:20:43;;;;;;;33.00;8.48;;;31.20;42.00;;;;;;4917483;29;20024;-71
2022/05/28 09:23:10;;;;;;;20.85;5.63;;;31.20;42.10;;;;;;4900090;29;20082;-72
2022/05/28 09:25:43;;;;;;;22.80;5.45;;;31.40;41.40;;;;;;4917201;29;20024;-72
2022/05/28 09:28:44;;;;;;;29.48;5.65;;;31.40;40.60;;;;;;4917657;29;20036;-73
2022/05/28 09:31:38;;;;;;;21.65;4.95;;;31.40;41.00;;;;;;4900693;29;20084;-72
2022/05/28 09:34:21;;;;;;;22.95;5.40;;;31.30;40.60;;;;;;4917485;29;20047;-72
2022/05/28 09:37:08;;;;;;;29.65;6.40;;;31.40;40.10;;;;;;4921921;29;20039;-69
2022/05/28 09:40:18;;;;;;;21.92;6.68;;;31.40;40.80;;;;;;4917012;29;20036;-72
2022/05/28 09:43:05;;;;;;;79.88;10.20;;;31.50;41.10;;;;;;4898649;29;20040;-74
2022/05/28 09:45:55;;;;;;;24.67;6.20;;;31.60;40.80;;;;;;4915079;29;20148;-76
2022/05/28 09:48:26;;;;;;;26.55;6.05;;;31.60;40.50;;;;;;4914108;29;20035;-75
2022/05/28 09:50:53;;;;;;;19.40;5.38;;;31.70;39.10;;;;;;4918996;29;20055;-77
2022/05/28 09:56:23;;;;;;;27.60;5.40;;;31.70;40.10;;;;;;4935819;29;20441;-73
2022/05/28 09:58:51;;;;;;;29.83;6.65;;;31.80;39.80;;;;;;4918930;29;20382;-74
2022/05/28 10:01:23;;;;;;;26.45;5.32;;;31.80;39.90;;;;;;4935695;29;20385;-75
2022/05/28 10:06:49;;;;;;;34.25;13.07;;;31.90;38.10;;;;;;4936002;29;20274;-70
2022/05/28 10:09:20;;;;;;;21.65;6.03;;;32.00;38.60;;;;;;4929329;29;20028;-71
2022/05/28 10:12:01;;;;;;;21.27;4.50;;;32.00;37.40;;;;;;4931917;29;20130;-75
2022/05/28 10:14:30;;;;;;;92.40;15.05;;;32.10;37.30;;;;;;4935663;29;20063;-75
2022/05/28 10:17:00;;;;;;;41.58;6.75;;;32.10;37.10;;;;;;4935652;29;20032;-75
2022/05/28 10:19:28;;;;;;;24.75;5.53;;;32.10;37.30;;;;;;4935098;29;20039;-80
2022/05/28 10:21:57;;;;;;;27.08;6.18;;;32.10;37.90;;;;;;4935803;29;20445;-75
2022/05/28 10:24:26;;;;;;;28.13;5.78;;;32.10;37.30;;;;;;4918421;29;20468;-78
2022/05/28 10:26:58;;;;;;;25.52;6.60;;;32.20;37.00;;;;;;4935426;29;20028;-72
2022/05/28 10:29:43;;;;;;;22.58;5.85;;;32.30;39.20;;;;;;4935177;29;20028;-75
2022/05/28 10:32:36;;;;;;;17.35;4.75;;;32.30;40.70;;;;;;4918664;29;20493;-77
2022/05/28 10:35:21;;;;;;;22.55;5.85;;;32.30;41.70;;;;;;4934930;29;20036;-72
2022/05/28 10:37:48;;;;;;;17.92;5.20;;;32.30;42.60;;;;;;4935409;29;20114;-74
2022/05/28 10:40:25;;;;;;;25.73;6.00;;;32.30;42.20;;;;;;4935522;29;20028;-76
2022/05/28 10:42:58;;;;;;;23.83;5.53;;;32.30;43.60;;;;;;4935077;29;20118;-74
2022/05/28 10:45:32;;;;;;;23.67;6.28;;;32.30;42.90;;;;;;4935286;29;20059;-76
2022/05/28 10:48:09;;;;;;;19.15;5.82;;;32.30;43.10;;;;;;4935268;29;20028;-77
2022/05/28 10:51:01;;;;;;;27.73;5.47;;;32.30;43.00;;;;;;4931046;29;20699;-81
2022/05/28 10:53:48;;;;;;;21.55;5.80;;;32.30;43.30;;;;;;4928860;29;20492;-79
2022/05/28 10:56:56;;;;;;;20.65;5.85;;;32.30;43.10;;;;;;4935617;29;20042;-77
2022/05/28 10:59:38;;;;;;;21.02;6.38;;;32.30;43.20;;;;;;4934991;29;20036;-75
2022/05/28 11:02:06;;;;;;;24.02;6.18;;;32.40;43.00;;;;;;4935574;29;20032;-76
2022/05/28 11:04:59;;;;;;;14.25;5.45;;;32.30;44.30;;;;;;4935298;29;20055;-78
2022/05/28 11:07:31;;;;;;;17.25;5.65;;;32.30;43.30;;;;;;4935309;29;20496;-70
2022/05/28 11:10:24;;;;;;;18.48;4.80;;;32.20;43.20;;;;;;4934883;29;20445;-69
2022/05/28 11:13:13;;;;;;;23.38;6.10;;;32.20;43.30;;;;;;4917066;29;20040;-70
2022/05/28 11:15:57;;;;;;;19.60;6.13;;;32.20;43.20;;;;;;4934798;29;20078;-73
2022/05/28 11:18:31;;;;;;;;;;;32.20;43.20;;;;;;4935492;29;20028;-71
2022/05/28 11:21:15;;;;;;;;;;;32.30;43.20;;;;;;4934860;29;19907;-71
2022/05/28 11:23:59;;;;;;;17.30;5.80;;;32.30;43.20;;;;;;4934843;29;19913;-74
2022/05/28 11:27:02;;;;;;;18.55;5.47;;;32.30;42.70;;;;;;4935244;29;20461;-72
2022/05/28 11:29:58;;;;;;;13.73;4.93;;;32.30;43.20;;;;;;4938102;29;20031;-72
2022/05/28 11:32:27;;;;;;;17.92;6.03;;;32.40;43.30;;;;;;4936465;29;20039;-74
2022/05/28 11:35:09;;;;;;;20.45;6.00;;;32.50;42.80;;;;;;4937478;29;20349;-78
2022/05/28 11:37:52;;;;;;;17.95;5.38;;;32.50;42.70;;;;;;4938428;29;20347;-75
2022/05/28 11:40:24;;;;;;;16.15;5.63;;;32.50;42.50;;;;;;4937982;29;20039;-76
2022/05/28 11:43:05;;;;;;;13.30;5.00;;;32.50;43.60;;;;;;4938330;29;20171;-72
2022/05/28 11:45:42;;;;;;;22.42;5.63;;;32.50;43.20;;;;;;4938148;29;20260;-69
2022/05/28 11:48:15;;;;;;;21.25;5.68;;;32.50;43.60;;;;;;4938147;29;20023;-70
2022/05/28 11:53:42;;;;;;;18.85;5.25;;;32.50;43.60;;;;;;4938412;29;20090;-68
2022/05/28 11:56:15;;;;;;;15.80;4.95;;;32.40;43.40;;;;;;4938000;29;20040;-69
2022/05/28 11:59:00;;;;;;;12.55;5.25;;;32.40;43.30;;;;;;4920202;29;20024;-69
2022/05/28 12:01:29;;;;;;;16.67;5.32;;;32.40;43.40;;;;;;4938237;29;20381;-72
2022/05/28 12:03:56;;;;;;;23.70;5.57;;;32.30;43.30;;;;;;4937708;29;20055;-71
2022/05/28 12:06:26;;;;;;;14.93;4.63;;;32.30;43.10;;;;;;4937806;29;20077;-70
2022/05/28 12:09:06;;;;;;;23.13;5.20;;;32.30;42.80;;;;;;4937851;29;20111;-70
2022/05/28 12:12:13;;;;;;;21.50;5.72;;;32.20;42.80;;;;;;4938400;29;20381;-70
2022/05/28 12:14:41;;;;;;;20.52;5.00;;;32.30;43.30;;;;;;4922063;29;20157;-72
2022/05/28 12:17:11;;;;;;;21.05;5.50;;;32.30;42.40;;;;;;4938177;29;20481;-69
2022/05/28 12:19:51;;;;;;;17.40;5.25;;;32.20;42.60;;;;;;4937896;29;20028;-68
2022/05/28 12:22:35;;;;;;;16.00;5.40;;;32.10;43.20;;;;;;4937777;29;20090;-74
2022/05/28 12:25:16;;;;;;;13.02;4.93;;;32.00;43.20;;;;;;4937805;29;20366;-72
2022/05/28 12:27:53;;;;;;;18.02;4.65;;;32.00;43.10;;;;;;4937672;29;20031;-69
2022/05/28 12:30:47;;;;;;;14.70;5.43;;;31.90;43.00;;;;;;4937575;29;20477;-68
2022/05/28 12:33:19;;;;;;;22.10;4.90;;;31.80;42.40;;;;;;4937605;29;20031;-68
2022/05/28 12:36:05;;;;;;;13.00;4.80;;;31.70;43.70;;;;;;4937566;29;20028;-69
2022/05/28 12:38:54;;;;;;;19.73;5.03;;;31.60;44.50;;;;;;4937109;29;20047;-70
2022/05/28 12:41:32;;;;;;;21.17;5.40;;;31.50;42.90;;;;;;4937497;29;20389;-69
2022/05/28 12:44:20;;;;;;;14.75;4.15;;;31.40;44.10;;;;;;4937310;29;20030;-70
2022/05/28 12:46:58;;;;;;;14.13;4.65;;;31.30;41.90;;;;;;4937212;29;20144;-67
2022/05/28 12:49:58;;;;;;;14.40;4.35;;;31.20;43.00;;;;;;4937157;29;20024;-70
2022/05/28 12:52:56;;;;;;;16.48;5.00;;;31.10;43.00;;;;;;4926766;29;20065;-69
2022/05/28 12:55:39;;;;;;;15.45;4.70;;;31.00;42.00;;;;;;4937008;29;20028;-69
2022/05/28 12:58:12;;;;;;;16.23;4.88;;;30.90;41.30;;;;;;4919990;29;20035;-70
2022/05/28 13:00:51;;;;;;;16.90;5.07;;;30.80;41.80;;;;;;4936847;29;20030;-71
2022/05/28 13:03:19;;;;;;;16.25;4.78;;;30.70;42.00;;;;;;4919965;29;20027;-70
2022/05/28 13:05:52;;;;;;;18.02;4.78;;;30.50;43.70;;;;;;4936953;29;20058;-73
2022/05/28 13:08:27;;;;;;;13.65;4.63;;;30.30;43.90;;;;;;4937375;29;20118;-71
2022/05/28 13:10:59;;;;;;;16.48;4.88;;;30.30;43.60;;;;;;4936873;29;20393;-73
2022/05/28 13:13:52;;;;;;;17.90;5.00;;;30.20;45.40;;;;;;4936939;29;20079;-73
2022/05/28 13:16:21;;;;;;;14.25;4.38;;;30.30;45.00;;;;;;4936836;29;20557;-70